KHQG

Hugoton Municipal Airport

Hugoton, Kansas, USA
METAR KHQG 180815Z AUTO 23004KT 10SM CLR M06/M09 A3002 RMK AO2 T10641086
Observed Flight Rules
Dec-18 @ 08:15 UTC (33 minutes ago) Visual Flight Rules
Wind Visibility Clouds
230° at 4 knots 10 miles
  • Clear skies
Temperatures Readings
Current -6°C / 21°F
Dewpoint -9°C / 16°F
Humidity 80%
Altimeter 30.02" Hg
Pressure 1017 hPa
Elevation 956
METAR KHQG 180815Z AUTO 23004KT 10SM CLR M06/M09 A3002 RMK AO2 T10641086
Observed Flight Rules
Dec-18 @ 08:15 UTC
(33 minutes ago)
VFR
Wind Visibility
230° at 4 knots 10 miles
Clouds
  • Clear skies
Temperature Dewpoint
-6°C / 21°F -9°C / 16°F
Humidity Altimeter Pressure
80% 30.02" Hg 1017 hPa